sensor_id;sensor_type;location;lat;lon;timestamp;pressure;altitude;pressure_sealevel;temperature;humidity
40117;BME280;25829;50.228;18.936;2023-09-12T00:01:53;98333.16;;;16.19;74.04
40117;BME280;25829;50.228;18.936;2023-09-12T00:04:54;98336.78;;;16.13;73.95
40117;BME280;25829;50.228;18.936;2023-09-12T00:07:54;98333.19;;;16.02;74.16
40117;BME280;25829;50.228;18.936;2023-09-12T00:11:07;98328.84;;;15.96;74.10
40117;BME280;25829;50.228;18.936;2023-09-12T00:14:15;98334.44;;;15.94;74.17
40117;BME280;25829;50.228;18.936;2023-09-12T00:17:16;98333.84;;;15.92;74.35
40117;BME280;25829;50.228;18.936;2023-09-12T00:20:28;98334.16;;;15.96;74.33
40117;BME280;25829;50.228;18.936;2023-09-12T00:23:37;98332.88;;;15.98;74.25
40117;BME280;25829;50.228;18.936;2023-09-12T00:26:37;98329.09;;;15.94;74.33
40117;BME280;25829;50.228;18.936;2023-09-12T00:29:38;98334.44;;;15.94;74.55
40117;BME280;25829;50.228;18.936;2023-09-12T00:32:39;98325.38;;;15.95;74.43
40117;BME280;25829;50.228;18.936;2023-09-12T00:35:45;98328.06;;;15.95;74.40
40117;BME280;25829;50.228;18.936;2023-09-12T00:38:46;98322.91;;;15.89;74.44
40117;BME280;25829;50.228;18.936;2023-09-12T00:41:47;98331.88;;;15.83;74.40
40117;BME280;25829;50.228;18.936;2023-09-12T00:44:48;98330.50;;;15.80;74.45
40117;BME280;25829;50.228;18.936;2023-09-12T00:47:49;98325.69;;;15.77;74.37
40117;BME280;25829;50.228;18.936;2023-09-12T00:50:57;98324.88;;;15.76;74.18
40117;BME280;25829;50.228;18.936;2023-09-12T00:53:58;98333.91;;;15.75;74.38
40117;BME280;25829;50.228;18.936;2023-09-12T00:56:59;98329.41;;;15.76;74.31
40117;BME280;25829;50.228;18.936;2023-09-12T01:00:07;98333.91;;;15.75;74.39
40117;BME280;25829;50.228;18.936;2023-09-12T01:03:12;98329.88;;;15.73;74.33
40117;BME280;25829;50.228;18.936;2023-09-12T01:06:22;98331.97;;;15.71;74.42
40117;BME280;25829;50.228;18.936;2023-09-12T01:09:24;98324.16;;;15.64;74.53
40117;BME280;25829;50.228;18.936;2023-09-12T01:12:31;98329.91;;;15.56;74.74
40117;BME280;25829;50.228;18.936;2023-09-12T01:15:32;98333.59;;;15.55;74.74
40117;BME280;25829;50.228;18.936;2023-09-12T01:18:33;98331.75;;;15.55;74.74
40117;BME280;25829;50.228;18.936;2023-09-12T01:28:55;98329.97;;;15.61;74.99
40117;BME280;25829;50.228;18.936;2023-09-12T01:31:58;98327.06;;;15.63;74.92
40117;BME280;25829;50.228;18.936;2023-09-12T01:35:01;98323.34;;;15.64;74.95
40117;BME280;25829;50.228;18.936;2023-09-12T01:38:10;98330.78;;;15.62;74.87
40117;BME280;25829;50.228;18.936;2023-09-12T01:41:12;98332.13;;;15.64;74.94
40117;BME280;25829;50.228;18.936;2023-09-12T01:44:14;98334.25;;;15.62;74.64
40117;BME280;25829;50.228;18.936;2023-09-12T01:47:17;98340.75;;;15.54;74.58
40117;BME280;25829;50.228;18.936;2023-09-12T01:50:25;98347.53;;;15.45;75.09
40117;BME280;25829;50.228;18.936;2023-09-12T01:53:31;98345.38;;;15.42;75.33
40117;BME280;25829;50.228;18.936;2023-09-12T01:56:33;98339.72;;;15.39;75.17
40117;BME280;25829;50.228;18.936;2023-09-12T01:59:38;98337.28;;;15.37;75.30
40117;BME280;25829;50.228;18.936;2023-09-12T02:02:45;98340.53;;;15.39;75.35
40117;BME280;25829;50.228;18.936;2023-09-12T02:05:52;98335.47;;;15.38;75.37
40117;BME280;25829;50.228;18.936;2023-09-12T02:08:53;98330.31;;;15.31;75.18
40117;BME280;25829;50.228;18.936;2023-09-12T02:11:54;98331.84;;;15.27;75.35
40117;BME280;25829;50.228;18.936;2023-09-12T02:15:01;98335.84;;;15.29;75.34
40117;BME280;25829;50.228;18.936;2023-09-12T02:18:02;98332.88;;;15.26;75.31
40117;BME280;25829;50.228;18.936;2023-09-12T02:21:03;98331.84;;;15.27;75.35
40117;BME280;25829;50.228;18.936;2023-09-12T02:24:07;98330.22;;;15.26;75.23
40117;BME280;25829;50.228;18.936;2023-09-12T02:27:14;98331.31;;;15.13;75.64
40117;BME280;25829;50.228;18.936;2023-09-12T02:30:15;98326.81;;;15.14;75.88
40117;BME280;25829;50.228;18.936;2023-09-12T02:33:33;98340.63;;;15.16;75.56
40117;BME280;25829;50.228;18.936;2023-09-12T02:36:34;98333.72;;;15.15;75.61
40117;BME280;25829;50.228;18.936;2023-09-12T02:39:35;98330.00;;;15.16;75.60
40117;BME280;25829;50.228;18.936;2023-09-12T02:42:36;98340.41;;;15.17;75.64
40117;BME280;25829;50.228;18.936;2023-09-12T02:45:37;98335.31;;;15.16;75.65
40117;BME280;25829;50.228;18.936;2023-09-12T02:48:37;98337.75;;;15.17;75.71
40117;BME280;25829;50.228;18.936;2023-09-12T02:51:39;98328.72;;;15.18;75.80
40117;BME280;25829;50.228;18.936;2023-09-12T02:54:40;98340.16;;;15.19;75.72
40117;BME280;25829;50.228;18.936;2023-09-12T02:57:40;98333.25;;;15.18;75.46
40117;BME280;25829;50.228;18.936;2023-09-12T03:00:42;98336.38;;;15.15;75.62
40117;BME280;25829;50.228;18.936;2023-09-12T03:03:45;98332.66;;;15.16;75.53
40117;BME280;25829;50.228;18.936;2023-09-12T03:06:48;98339.03;;;15.15;75.60
40117;BME280;25829;50.228;18.936;2023-09-12T03:09:49;98339.63;;;15.17;75.40
40117;BME280;25829;50.228;18.936;2023-09-12T03:12:56;98343.53;;;15.14;74.96
40117;BME280;25829;50.228;18.936;2023-09-12T03:15:57;98348.75;;;15.09;75.37
40117;BME280;25829;50.228;18.936;2023-09-12T03:19:01;98350.94;;;15.12;75.40
40117;BME280;25829;50.228;18.936;2023-09-12T03:22:03;98339.19;;;15.08;75.96
40117;BME280;25829;50.228;18.936;2023-09-12T03:25:07;98351.09;;;15.05;75.45
40117;BME280;25829;50.228;18.936;2023-09-12T03:28:08;98344.91;;;15.00;75.68
40117;BME280;25829;50.228;18.936;2023-09-12T03:31:11;98340.84;;;14.97;75.74
40117;BME280;25829;50.228;18.936;2023-09-12T03:34:16;98341.66;;;14.98;75.90
40117;BME280;25829;50.228;18.936;2023-09-12T03:37:17;98334.50;;;14.98;75.71
40117;BME280;25829;50.228;18.936;2023-09-12T03:40:19;98343.25;;;14.99;75.49
40117;BME280;25829;50.228;18.936;2023-09-12T03:43:20;98341.91;;;14.96;75.52
40117;BME280;25829;50.228;18.936;2023-09-12T03:46:24;98337.28;;;14.92;75.55
40117;BME280;25829;50.228;18.936;2023-09-12T03:49:25;98339.41;;;14.90;75.50
40117;BME280;25829;50.228;18.936;2023-09-12T03:52:30;98334.56;;;14.87;75.54
40117;BME280;25829;50.228;18.936;2023-09-12T03:55:30;98340.94;;;14.85;75.65
40117;BME280;25829;50.228;18.936;2023-09-12T03:58:32;98342.19;;;14.83;75.51
40117;BME280;25829;50.228;18.936;2023-09-12T04:01:39;98338.97;;;14.81;75.62
40117;BME280;25829;50.228;18.936;2023-09-12T04:04:40;98342.69;;;14.80;75.55
40117;BME280;25829;50.228;18.936;2023-09-12T04:07:41;98346.13;;;14.80;75.73
40117;BME280;25829;50.228;18.936;2023-09-12T04:11:03;98348.25;;;14.78;75.81
40117;BME280;25829;50.228;18.936;2023-09-12T04:14:14;98343.16;;;14.77;75.57
40117;BME280;25829;50.228;18.936;2023-09-12T04:17:18;98342.47;;;14.70;75.67
40117;BME280;25829;50.228;18.936;2023-09-12T04:20:22;98340.31;;;14.67;75.82
40117;BME280;25829;50.228;18.936;2023-09-12T04:23:28;98344.56;;;14.68;76.03
40117;BME280;25829;50.228;18.936;2023-09-12T04:26:29;98345.13;;;14.70;75.84
40117;BME280;25829;50.228;18.936;2023-09-12T04:29:35;98345.13;;;14.70;75.83
40117;BME280;25829;50.228;18.936;2023-09-12T04:46:12;98353.09;;;14.70;76.05
40117;BME280;25829;50.228;18.936;2023-09-12T04:49:20;98352.06;;;14.71;76.09
40117;BME280;25829;50.228;18.936;2023-09-12T04:52:27;98347.31;;;14.73;76.17
40117;BME280;25829;50.228;18.936;2023-09-12T04:55:53;98350.88;;;14.78;76.47
40117;BME280;25829;50.228;18.936;2023-09-12T04:59:01;98354.91;;;14.81;76.40
40117;BME280;25829;50.228;18.936;2023-09-12T05:02:01;98365.06;;;14.84;76.47
40117;BME280;25829;50.228;18.936;2023-09-12T05:05:09;98362.72;;;14.88;76.77
40117;BME280;25829;50.228;18.936;2023-09-12T05:08:10;98358.78;;;14.90;76.73
40117;BME280;25829;50.228;18.936;2023-09-12T05:11:11;98362.09;;;14.97;76.96
40117;BME280;25829;50.228;18.936;2023-09-12T05:14:21;98366.00;;;15.06;77.03
40117;BME280;25829;50.228;18.936;2023-09-12T05:17:22;98369.78;;;15.11;76.69
40117;BME280;25829;50.228;18.936;2023-09-12T05:20:23;98360.28;;;15.15;77.12
40117;BME280;25829;50.228;18.936;2023-09-12T05:24:07;98370.06;;;15.26;77.06
40117;BME280;25829;50.228;18.936;2023-09-12T05:27:08;98364.84;;;15.31;77.15
40117;BME280;25829;50.228;18.936;2023-09-12T05:30:09;98364.19;;;15.41;77.41
40117;BME280;25829;50.228;18.936;2023-09-12T05:33:10;98363.50;;;15.45;77.14
40117;BME280;25829;50.228;18.936;2023-09-12T05:36:11;98365.19;;;15.51;77.40
40117;BME280;25829;50.228;18.936;2023-09-12T05:39:12;98363.19;;;15.59;77.75
40117;BME280;25829;50.228;18.936;2023-09-12T05:42:41;98363.88;;;15.71;77.52
40117;BME280;25829;50.228;18.936;2023-09-12T05:45:42;98367.75;;;15.80;77.46
40117;BME280;25829;50.228;18.936;2023-09-12T05:48:43;98366.53;;;15.88;77.57
40117;BME280;25829;50.228;18.936;2023-09-12T05:51:51;98372.56;;;16.00;77.50
40117;BME280;25829;50.228;18.936;2023-09-12T05:54:52;98368.69;;;16.08;77.80
40117;BME280;25829;50.228;18.936;2023-09-12T05:57:53;98369.63;;;16.18;77.67
40117;BME280;25829;50.228;18.936;2023-09-12T06:00:55;98367.91;;;16.29;77.85
40117;BME280;25829;50.228;18.936;2023-09-12T06:03:55;98371.81;;;16.43;78.04
40117;BME280;25829;50.228;18.936;2023-09-12T06:06:57;98378.63;;;16.56;77.74
40117;BME280;25829;50.228;18.936;2023-09-12T06:09:58;98374.22;;;16.67;77.74
40117;BME280;25829;50.228;18.936;2023-09-12T06:12:59;98372.00;;;16.81;77.96
40117;BME280;25829;50.228;18.936;2023-09-12T06:15:59;98388.09;;;16.91;78.15
40117;BME280;25829;50.228;18.936;2023-09-12T06:19:00;98376.25;;;17.04;78.40
40117;BME280;25829;50.228;18.936;2023-09-12T06:22:01;98379.00;;;17.14;78.67
40117;BME280;25829;50.228;18.936;2023-09-12T06:25:03;98374.91;;;17.28;78.52
40117;BME280;25829;50.228;18.936;2023-09-12T06:28:05;98372.31;;;17.38;78.48
40117;BME280;25829;50.228;18.936;2023-09-12T06:31:08;98379.34;;;17.50;78.67
40117;BME280;25829;50.228;18.936;2023-09-12T06:34:10;98376.75;;;17.60;78.73
40117;BME280;25829;50.228;18.936;2023-09-12T06:37:16;98370.94;;;17.68;78.90
40117;BME280;25829;50.228;18.936;2023-09-12T06:40:26;98379.00;;;17.78;79.04
40117;BME280;25829;50.228;18.936;2023-09-12T06:43:30;98374.81;;;17.87;79.01
40117;BME280;25829;50.228;18.936;2023-09-12T06:46:31;98365.00;;;17.98;78.81
40117;BME280;25829;50.228;18.936;2023-09-12T06:49:36;98368.28;;;18.10;78.55
40117;BME280;25829;50.228;18.936;2023-09-12T06:52:38;98372.88;;;18.20;78.73
40117;BME280;25829;50.228;18.936;2023-09-12T06:55:38;98374.25;;;18.28;78.28
40117;BME280;25829;50.228;18.936;2023-09-12T06:58:43;98375.66;;;18.40;78.04
40117;BME280;25829;50.228;18.936;2023-09-12T07:01:44;98372.22;;;18.50;77.68
40117;BME280;25829;50.228;18.936;2023-09-12T07:04:48;98373.59;;;18.58;77.47
40117;BME280;25829;50.228;18.936;2023-09-12T07:07:51;98382.72;;;18.67;77.03
40117;BME280;25829;50.228;18.936;2023-09-12T07:10:52;98378.19;;;18.78;77.21
40117;BME280;25829;50.228;18.936;2023-09-12T07:13:57;98382.28;;;18.91;76.93
40117;BME280;25829;50.228;18.936;2023-09-12T07:16:58;98376.13;;;19.00;76.50
40117;BME280;25829;50.228;18.936;2023-09-12T07:20:06;98377.78;;;19.12;75.65
40117;BME280;25829;50.228;18.936;2023-09-12T07:23:17;98381.81;;;19.19;75.52
40117;BME280;25829;50.228;18.936;2023-09-12T07:26:21;98383.13;;;19.32;75.35
40117;BME280;25829;50.228;18.936;2023-09-12T07:29:21;98374.31;;;19.42;75.11
40117;BME280;25829;50.228;18.936;2023-09-12T07:32:25;98378.59;;;19.53;74.75
40117;BME280;25829;50.228;18.936;2023-09-12T07:35:25;98382.63;;;19.66;74.94
40117;BME280;25829;50.228;18.936;2023-09-12T07:38:28;98387.44;;;19.79;74.52
40117;BME280;25829;50.228;18.936;2023-09-12T07:41:31;98386.09;;;19.92;74.04
40117;BME280;25829;50.228;18.936;2023-09-12T07:44:32;98386.34;;;20.05;73.96
40117;BME280;25829;50.228;18.936;2023-09-12T07:47:32;98386.03;;;20.17;73.97
40117;BME280;25829;50.228;18.936;2023-09-12T07:50:34;98386.00;;;20.33;73.18
40117;BME280;25829;50.228;18.936;2023-09-12T07:53:38;98375.50;;;20.46;72.45
40117;BME280;25829;50.228;18.936;2023-09-12T07:56:39;98385.09;;;20.63;71.98
40117;BME280;25829;50.228;18.936;2023-09-12T07:59:40;98383.41;;;20.82;71.59
40117;BME280;25829;50.228;18.936;2023-09-12T08:02:42;98383.56;;;21.01;70.50
40117;BME280;25829;50.228;18.936;2023-09-12T08:05:58;98384.00;;;21.23;70.00
40117;BME280;25829;50.228;18.936;2023-09-12T08:09:00;98385.19;;;21.41;70.09
40117;BME280;25829;50.228;18.936;2023-09-12T08:12:04;98372.16;;;21.59;69.32
40117;BME280;25829;50.228;18.936;2023-09-12T08:15:05;98380.13;;;21.69;68.83
40117;BME280;25829;50.228;18.936;2023-09-12T08:18:06;98377.38;;;21.79;68.63
40117;BME280;25829;50.228;18.936;2023-09-12T08:21:30;98375.41;;;21.90;68.46
40117;BME280;25829;50.228;18.936;2023-09-12T08:28:16;98378.97;;;22.09;68.43
40117;BME280;25829;50.228;18.936;2023-09-12T08:31:35;98372.41;;;22.21;67.93
40117;BME280;25829;50.228;18.936;2023-09-12T08:38:05;98375.88;;;22.45;67.11
40117;BME280;25829;50.228;18.936;2023-09-12T08:52:32;98375.81;;;22.93;66.20
40117;BME280;25829;50.228;18.936;2023-09-12T08:56:16;98375.38;;;23.05;64.34
40117;BME280;25829;50.228;18.936;2023-09-12T09:17:33;98376.88;;;23.81;59.40
40117;BME280;25829;50.228;18.936;2023-09-12T09:20:34;98360.03;;;23.90;60.19
40117;BME280;25829;50.228;18.936;2023-09-12T09:26:59;98364.16;;;24.15;60.82
40117;BME280;25829;50.228;18.936;2023-09-12T09:30:01;98366.88;;;24.28;59.93
40117;BME280;25829;50.228;18.936;2023-09-12T09:50:18;98352.84;;;25.40;57.69
40117;BME280;25829;50.228;18.936;2023-09-12T09:53:29;98354.38;;;26.17;56.63
40117;BME280;25829;50.228;18.936;2023-09-12T09:56:31;98349.94;;;26.96;56.86
40117;BME280;25829;50.228;18.936;2023-09-12T09:59:32;98352.28;;;27.67;56.33
40117;BME280;25829;50.228;18.936;2023-09-12T10:20:52;98346.94;;;27.97;50.10
40117;BME280;25829;50.228;18.936;2023-09-12T10:23:59;98334.41;;;27.66;51.10
40117;BME280;25829;50.228;18.936;2023-09-12T10:27:14;98341.31;;;27.46;50.86
40117;BME280;25829;50.228;18.936;2023-09-12T10:30:29;98338.13;;;27.35;49.67
40117;BME280;25829;50.228;18.936;2023-09-12T10:33:38;98333.88;;;27.17;47.67
40117;BME280;25829;50.228;18.936;2023-09-12T10:36:58;98342.44;;;27.02;50.69
40117;BME280;25829;50.228;18.936;2023-09-12T10:40:01;98330.50;;;26.94;49.87
40117;BME280;25829;50.228;18.936;2023-09-12T10:43:08;98330.34;;;26.82;49.60
40117;BME280;25829;50.228;18.936;2023-09-12T10:50:06;98329.22;;;26.65;49.72
40117;BME280;25829;50.228;18.936;2023-09-12T10:53:13;98334.16;;;26.63;50.57
40117;BME280;25829;50.228;18.936;2023-09-12T10:56:27;98330.97;;;26.61;50.12
40117;BME280;25829;50.228;18.936;2023-09-12T11:06:42;98332.06;;;26.69;48.30
40117;BME280;25829;50.228;18.936;2023-09-12T11:09:44;98335.41;;;26.66;48.98
40117;BME280;25829;50.228;18.936;2023-09-12T11:12:50;98329.88;;;26.71;48.57
40117;BME280;25829;50.228;18.936;2023-09-12T11:16:23;98335.09;;;26.76;48.03
40117;BME280;25829;50.228;18.936;2023-09-12T11:23:48;98319.53;;;26.82;46.65
40117;BME280;25829;50.228;18.936;2023-09-12T11:30:57;98318.06;;;26.76;47.72
40117;BME280;25829;50.228;18.936;2023-09-12T11:37:58;98322.69;;;26.93;46.50
40117;BME280;25829;50.228;18.936;2023-09-12T11:44:57;98317.28;;;26.93;46.44
40117;BME280;25829;50.228;18.936;2023-09-12T11:48:05;98316.16;;;26.94;46.83
40117;BME280;25829;50.228;18.936;2023-09-12T12:02:52;98301.69;;;26.89;47.03
40117;BME280;25829;50.228;18.936;2023-09-12T12:05:54;98307.88;;;26.90;47.43
40117;BME280;25829;50.228;18.936;2023-09-12T12:18:01;98298.50;;;26.87;46.61
40117;BME280;25829;50.228;18.936;2023-09-12T12:21:14;98298.97;;;26.89;46.45
40117;BME280;25829;50.228;18.936;2023-09-12T12:24:49;98283.38;;;26.95;45.66
40117;BME280;25829;50.228;18.936;2023-09-12T12:27:52;98300.06;;;26.97;46.69
40117;BME280;25829;50.228;18.936;2023-09-12T12:31:14;98291.47;;;27.04;46.06
40117;BME280;25829;50.228;18.936;2023-09-12T12:47:17;98279.69;;;27.00;46.17
40117;BME280;25829;50.228;18.936;2023-09-12T12:50:24;98288.59;;;27.00;46.26
40117;BME280;25829;50.228;18.936;2023-09-12T12:54:02;98280.34;;;27.05;45.67
40117;BME280;25829;50.228;18.936;2023-09-12T12:57:44;98279.84;;;27.03;46.68
40117;BME280;25829;50.228;18.936;2023-09-12T13:05:35;98278.75;;;26.96;45.84
40117;BME280;25829;50.228;18.936;2023-09-12T13:08:38;98280.50;;;26.92;46.48
40117;BME280;25829;50.228;18.936;2023-09-12T13:11:51;98280.50;;;26.92;45.86
40117;BME280;25829;50.228;18.936;2023-09-12T13:15:04;98280.03;;;26.89;46.44
40117;BME280;25829;50.228;18.936;2023-09-12T13:42:58;98269.34;;;26.93;43.78
40117;BME280;25829;50.228;18.936;2023-09-12T14:07:33;98268.75;;;26.70;45.99
40117;BME280;25829;50.228;18.936;2023-09-12T14:22:42;98271.56;;;27.00;44.27
40117;BME280;25829;50.228;18.936;2023-09-12T14:26:23;98269.34;;;27.02;44.59
40117;BME280;25829;50.228;18.936;2023-09-12T14:30:28;98276.50;;;26.98;44.39
40117;BME280;25829;50.228;18.936;2023-09-12T14:34:35;98281.47;;;26.96;43.93
40117;BME280;25829;50.228;18.936;2023-09-12T14:41:49;98273.31;;;26.87;45.07
40117;BME280;25829;50.228;18.936;2023-09-12T14:45:29;98274.94;;;26.88;44.02
40117;BME280;25829;50.228;18.936;2023-09-12T14:48:58;98275.88;;;26.83;45.07
40117;BME280;25829;50.228;18.936;2023-09-12T14:52:02;98271.75;;;26.77;45.12
40117;BME280;25829;50.228;18.936;2023-09-12T14:55:03;98272.06;;;26.76;45.35
40117;BME280;25829;50.228;18.936;2023-09-12T14:58:14;98274.31;;;26.74;45.05
40117;BME280;25829;50.228;18.936;2023-09-12T15:01:37;98276.03;;;26.70;44.43
40117;BME280;25829;50.228;18.936;2023-09-12T15:13:05;98273.47;;;26.47;45.65
40117;BME280;25829;50.228;18.936;2023-09-12T16:01:33;98265.91;;;25.30;54.11
40117;BME280;25829;50.228;18.936;2023-09-12T16:09:24;98268.13;;;25.14;54.67
40117;BME280;25829;50.228;18.936;2023-09-12T16:29:45;98258.81;;;24.75;58.62
40117;BME280;25829;50.228;18.936;2023-09-12T16:33:51;98263.38;;;24.66;59.09
40117;BME280;25829;50.228;18.936;2023-09-12T16:37:19;98269.75;;;24.56;58.97
40117;BME280;25829;50.228;18.936;2023-09-12T16:40:39;98270.16;;;24.49;59.01
40117;BME280;25829;50.228;18.936;2023-09-12T16:44:05;98259.59;;;24.39;59.78
40117;BME280;25829;50.228;18.936;2023-09-12T17:37:45;98282.28;;;22.47;64.56
40117;BME280;25829;50.228;18.936;2023-09-12T17:53:56;98289.03;;;22.02;64.65
40117;BME280;25829;50.228;18.936;2023-09-12T17:56:58;98287.56;;;21.90;64.91
40117;BME280;25829;50.228;18.936;2023-09-12T18:12:01;98290.94;;;21.48;66.17
40117;BME280;25829;50.228;18.936;2023-09-12T18:22:54;98294.91;;;21.27;67.33
40117;BME280;25829;50.228;18.936;2023-09-12T18:26:15;98295.47;;;21.18;66.33
40117;BME280;25829;50.228;18.936;2023-09-12T18:29:41;98295.78;;;21.12;67.38
40117;BME280;25829;50.228;18.936;2023-09-12T18:32:52;98309.78;;;21.04;66.64
40117;BME280;25829;50.228;18.936;2023-09-12T18:45:14;98307.59;;;20.71;67.07
40117;BME280;25829;50.228;18.936;2023-09-12T18:58:46;98309.63;;;20.40;67.45
40117;BME280;25829;50.228;18.936;2023-09-12T19:01:50;98310.72;;;20.29;67.80
40117;BME280;25829;50.228;18.936;2023-09-12T19:04:54;98312.66;;;20.13;68.11
40117;BME280;25829;50.228;18.936;2023-09-12T19:25:32;98311.66;;;19.84;68.83
40117;BME280;25829;50.228;18.936;2023-09-12T19:28:38;98305.25;;;19.79;69.10
40117;BME280;25829;50.228;18.936;2023-09-12T19:35:06;98307.72;;;19.71;69.65
40117;BME280;25829;50.228;18.936;2023-09-12T19:38:10;98311.47;;;19.65;69.61
40117;BME280;25829;50.228;18.936;2023-09-12T19:41:12;98321.88;;;19.61;70.07
40117;BME280;25829;50.228;18.936;2023-09-12T19:44:19;98316.53;;;19.51;69.83
40117;BME280;25829;50.228;18.936;2023-09-12T19:47:24;98317.59;;;19.45;69.71
40117;BME280;25829;50.228;18.936;2023-09-12T19:50:25;98312.53;;;19.38;69.73
40117;BME280;25829;50.228;18.936;2023-09-12T20:15:23;98318.41;;;19.09;70.65
40117;BME280;25829;50.228;18.936;2023-09-12T20:18:30;98312.00;;;19.05;70.57
40117;BME280;25829;50.228;18.936;2023-09-12T20:21:40;98314.66;;;19.05;70.54
40117;BME280;25829;50.228;18.936;2023-09-12T20:24:41;98324.28;;;19.01;70.67
40117;BME280;25829;50.228;18.936;2023-09-12T20:27:45;98329.88;;;19.00;70.80
40117;BME280;25829;50.228;18.936;2023-09-12T20:30:45;98319.19;;;18.95;70.81
40117;BME280;25829;50.228;18.936;2023-09-12T20:33:46;98316.00;;;18.88;70.64
40117;BME280;25829;50.228;18.936;2023-09-12T20:36:51;98322.59;;;18.80;70.85
40117;BME280;25829;50.228;18.936;2023-09-12T20:39:55;98313.25;;;18.77;71.08
40117;BME280;25829;50.228;18.936;2023-09-12T20:42:55;98323.13;;;18.72;71.17
40117;BME280;25829;50.228;18.936;2023-09-12T20:45:59;98326.88;;;18.71;71.38
40117;BME280;25829;50.228;18.936;2023-09-12T20:49:00;98330.59;;;18.64;71.33
40117;BME280;25829;50.228;18.936;2023-09-12T20:52:01;98330.84;;;18.58;71.46
40117;BME280;25829;50.228;18.936;2023-09-12T20:55:08;98315.31;;;18.39;72.16
40117;BME280;25829;50.228;18.936;2023-09-12T20:58:09;98325.91;;;18.24;72.29
40117;BME280;25829;50.228;18.936;2023-09-12T21:01:11;98328.28;;;18.15;72.48
40117;BME280;25829;50.228;18.936;2023-09-12T21:04:12;98324.00;;;18.14;72.33
40117;BME280;25829;50.228;18.936;2023-09-12T21:07:13;98319.72;;;18.08;72.59
40117;BME280;25829;50.228;18.936;2023-09-12T21:10:14;98316.19;;;18.03;72.76
40117;BME280;25829;50.228;18.936;2023-09-12T21:13:14;98322.63;;;18.07;72.56
40117;BME280;25829;50.228;18.936;2023-09-12T21:16:17;98327.19;;;18.11;72.51
40117;BME280;25829;50.228;18.936;2023-09-12T21:19:20;98329.88;;;18.16;72.42
40117;BME280;25829;50.228;18.936;2023-09-12T21:22:21;98326.13;;;18.17;72.47
40117;BME280;25829;50.228;18.936;2023-09-12T21:25:22;98335.78;;;18.19;72.46
40117;BME280;25829;50.228;18.936;2023-09-12T21:28:26;98336.81;;;18.17;72.75
40117;BME280;25829;50.228;18.936;2023-09-12T21:31:30;98338.16;;;18.15;72.52
40117;BME280;25829;50.228;18.936;2023-09-12T21:34:30;98327.47;;;18.15;72.43
40117;BME280;25829;50.228;18.936;2023-09-12T21:37:31;98333.88;;;18.14;72.82
40117;BME280;25829;50.228;18.936;2023-09-12T21:40:33;98341.34;;;18.12;72.69
40117;BME280;25829;50.228;18.936;2023-09-12T21:43:40;98340.78;;;18.10;72.88
40117;BME280;25829;50.228;18.936;2023-09-12T21:46:46;98329.31;;;18.04;73.07
40117;BME280;25829;50.228;18.936;2023-09-12T21:49:50;98328.44;;;17.99;72.85
40117;BME280;25829;50.228;18.936;2023-09-12T21:52:54;98332.69;;;18.00;72.98
40117;BME280;25829;50.228;18.936;2023-09-12T21:55:58;98327.38;;;18.00;72.91
40117;BME280;25829;50.228;18.936;2023-09-12T21:58:59;98334.03;;;17.97;73.01
40117;BME280;25829;50.228;18.936;2023-09-12T22:01:59;98329.22;;;17.94;72.92
40117;BME280;25829;50.228;18.936;2023-09-12T22:05:00;98331.31;;;17.87;73.21
40117;BME280;25829;50.228;18.936;2023-09-12T22:08:05;98330.75;;;17.85;73.34
40117;BME280;25829;50.228;18.936;2023-09-12T22:11:06;98327.25;;;17.79;73.48
40117;BME280;25829;50.228;18.936;2023-09-12T22:14:09;98331.19;;;17.66;73.59
40117;BME280;25829;50.228;18.936;2023-09-12T22:17:16;98335.66;;;17.61;73.83
40117;BME280;25829;50.228;18.936;2023-09-12T22:20:41;98332.16;;;17.55;74.07
40117;BME280;25829;50.228;18.936;2023-09-12T22:23:42;98321.72;;;17.49;73.84
40117;BME280;25829;50.228;18.936;2023-09-12T22:26:46;98322.75;;;17.48;73.94
40117;BME280;25829;50.228;18.936;2023-09-12T22:29:55;98324.84;;;17.40;74.19
40117;BME280;25829;50.228;18.936;2023-09-12T22:32:56;98319.72;;;17.34;74.34
40117;BME280;25829;50.228;18.936;2023-09-12T22:35:57;98320.22;;;17.26;74.62
40117;BME280;25829;50.228;18.936;2023-09-12T22:39:03;98316.19;;;17.23;74.53
40117;BME280;25829;50.228;18.936;2023-09-12T22:42:19;98326.91;;;17.28;74.77
40117;BME280;25829;50.228;18.936;2023-09-12T22:45:25;98326.94;;;17.33;74.57
40117;BME280;25829;50.228;18.936;2023-09-12T22:48:26;98324.81;;;17.35;74.62
40117;BME280;25829;50.228;18.936;2023-09-12T22:51:30;98322.66;;;17.32;74.38
40117;BME280;25829;50.228;18.936;2023-09-12T22:54:33;98320.97;;;17.21;74.42
40117;BME280;25829;50.228;18.936;2023-09-12T22:57:37;98320.69;;;17.17;74.53
40117;BME280;25829;50.228;18.936;2023-09-12T23:00:39;98308.34;;;17.11;74.82
40117;BME280;25829;50.228;18.936;2023-09-12T23:03:40;98307.16;;;16.97;75.07
40117;BME280;25829;50.228;18.936;2023-09-12T23:06:40;98308.44;;;16.94;75.19
40117;BME280;25829;50.228;18.936;2023-09-12T23:09:41;98308.44;;;16.94;75.28
40117;BME280;25829;50.228;18.936;2023-09-12T23:12:42;98300.44;;;16.94;74.97
40117;BME280;25829;50.228;18.936;2023-09-12T23:15:42;98308.94;;;16.91;75.24
40117;BME280;25829;50.228;18.936;2023-09-12T23:18:43;98299.66;;;16.94;75.19
40117;BME280;25829;50.228;18.936;2023-09-12T23:21:44;98303.91;;;16.95;75.08
40117;BME280;25829;50.228;18.936;2023-09-12T23:24:44;98288.19;;;16.93;74.93
40117;BME280;25829;50.228;18.936;2023-09-12T23:32:14;98307.75;;;16.77;75.43
40117;BME280;25829;50.228;18.936;2023-09-12T23:35:31;98302.34;;;16.72;75.51
40117;BME280;25829;50.228;18.936;2023-09-12T23:38:32;98302.00;;;16.63;75.48
40117;BME280;25829;50.228;18.936;2023-09-12T23:41:38;98299.06;;;16.60;75.61
40117;BME280;25829;50.228;18.936;2023-09-12T23:44:39;98303.81;;;16.58;75.83